createdAt,value
2019-02-09T05:33:52.934Z,5.70
2019-02-09T05:36:21.395Z,5.80
2019-02-09T05:38:49.831Z,5.70
2019-02-09T05:41:18.264Z,5.80
2019-02-09T05:47:15.867Z,5.90
2019-02-09T05:49:44.356Z,5.80
2019-02-09T05:52:12.786Z,5.90
2019-02-09T05:54:41.532Z,6.00
2019-02-09T05:57:09.987Z,6.00
2019-02-09T05:59:38.424Z,6.10
2019-02-09T06:02:06.847Z,6.20
2019-02-09T06:04:35.570Z,6.20
2019-02-09T06:07:04.171Z,6.20
2019-02-09T06:09:32.607Z,6.40
2019-02-09T06:12:01.335Z,6.40
2019-02-09T06:14:29.771Z,6.50
2019-02-09T06:16:58.477Z,6.40
2019-02-09T06:19:26.935Z,6.40
2019-02-09T06:21:55.691Z,6.40
2019-02-09T06:24:24.116Z,6.50
2019-02-09T06:26:52.731Z,6.50
2019-02-09T06:29:21.155Z,6.50
2019-02-09T06:31:49.595Z,6.60
2019-02-09T06:34:18.047Z,6.60
2019-02-09T06:36:46.483Z,6.50
2019-02-09T06:39:14.915Z,6.50
2019-02-09T06:41:43.428Z,6.50
2019-02-09T06:44:12.156Z,6.60
2019-02-09T06:50:12.002Z,6.70
2019-02-09T06:52:40.595Z,6.80
2019-02-09T06:55:12.166Z,6.70
2019-02-09T07:01:09.485Z,6.80
2019-02-09T07:03:37.967Z,6.80
2019-02-09T07:06:06.670Z,6.80
2019-02-09T07:08:35.090Z,6.90
2019-02-09T07:11:03.895Z,6.90
2019-02-09T07:13:32.435Z,6.90
2019-02-09T07:16:00.931Z,6.80
2019-02-09T07:18:29.628Z,6.90
2019-02-09T07:20:58.056Z,6.90
2019-02-09T07:23:26.839Z,6.90
2019-02-09T07:29:24.254Z,6.90
2019-02-09T07:31:56.478Z,6.90
2019-02-09T07:37:52.094Z,7.00
2019-02-09T07:40:25.566Z,7.10
2019-02-09T07:46:35.420Z,7.10
2019-02-09T07:56:13.683Z,7.10
2019-02-09T08:02:11.307Z,7.20
2019-02-09T08:08:08.932Z,7.20
2019-02-09T08:10:39.062Z,7.20
2019-02-09T08:13:09.288Z,7.20
2019-02-09T08:15:38.459Z,7.20
2019-02-09T08:18:08.360Z,7.20
2019-02-09T08:20:37.562Z,7.20
2019-02-09T08:23:10.670Z,7.10
2019-02-09T08:25:40.570Z,7.10
2019-02-09T08:28:11.232Z,7.10
2019-02-09T08:30:47.667Z,7.10
2019-02-09T08:36:57.356Z,7.20
2019-02-09T08:39:25.787Z,7.20
2019-02-09T08:41:54.222Z,7.30
2019-02-09T08:47:52.023Z,7.40
2019-02-09T08:50:23.502Z,7.40
2019-02-09T08:56:32.961Z,7.60
2019-02-09T08:59:01.698Z,7.60
2019-02-09T09:01:30.126Z,7.60
2019-02-09T09:03:58.866Z,7.60
2019-02-09T09:06:27.339Z,7.60
2019-02-09T09:12:25.620Z,7.50
2019-02-09T09:14:54.265Z,7.50
2019-02-09T09:21:06.510Z,7.60
2019-02-09T09:27:03.952Z,7.80
2019-02-09T09:29:32.382Z,7.80
2019-02-09T09:32:00.811Z,7.80
2019-02-09T09:34:29.449Z,7.80
2019-02-09T09:40:41.085Z,7.90
2019-02-09T09:46:50.290Z,7.90
2019-02-09T09:49:18.988Z,8.00
2019-02-09T09:51:47.880Z,8.00
2019-02-09T09:57:45.232Z,8.20
2019-02-09T10:03:42.747Z,8.40
2019-02-09T10:09:39.394Z,8.50
2019-02-09T10:15:36.243Z,8.90
2019-02-09T10:18:05.115Z,8.90
2019-02-09T10:24:02.463Z,9.00
2019-02-09T10:26:31.485Z,9.00
2019-02-09T10:32:44.443Z,8.90
2019-02-09T10:38:52.055Z,8.90
2019-02-09T10:41:20.661Z,8.90
2019-02-09T10:43:49.313Z,8.90
2019-02-09T10:46:18.228Z,8.90
2019-02-09T10:48:46.802Z,8.90
2019-02-09T10:54:43.542Z,8.90
2019-02-09T10:57:12.252Z,8.90
2019-02-09T11:03:09.602Z,8.90
2019-02-09T11:05:38.065Z,9.00
2019-02-09T11:11:47.574Z,9.00
2019-02-09T11:14:15.994Z,9.10
2019-02-09T11:20:16.276Z,9.20
2019-02-09T11:22:44.787Z,9.20
2019-02-09T11:28:54.202Z,9.40
2019-02-09T11:31:23.731Z,9.50
2019-02-09T11:37:21.991Z,9.60
2019-02-09T11:43:19.970Z,9.70
2019-02-09T11:45:48.794Z,9.70
2019-02-09T11:48:17.299Z,9.70
2019-02-09T11:50:45.735Z,9.70
2019-02-09T11:56:43.667Z,9.80
2019-02-09T11:59:12.577Z,9.80
2019-02-09T12:01:41.019Z,9.80
2019-02-09T12:04:09.747Z,9.90
2019-02-09T12:06:38.597Z,10.10
2019-02-09T12:09:08.067Z,10.10
2019-02-09T12:11:37.042Z,10.10
2019-02-09T12:14:06.555Z,10.10
2019-02-09T12:20:18.688Z,10.10
2019-02-09T12:26:28.210Z,10.10
2019-02-09T12:28:56.648Z,10.10
2019-02-09T12:34:54.222Z,10.40
2019-02-09T12:40:51.255Z,10.40
2019-02-09T12:46:48.630Z,10.50
2019-02-09T12:49:17.329Z,10.60
2019-02-09T12:51:45.759Z,10.50
2019-02-09T12:54:14.190Z,10.50
2019-02-09T13:00:26.303Z,10.40
2019-02-09T13:03:52.740Z,10.40
2019-02-09T13:06:21.535Z,10.30
2019-02-09T13:08:49.991Z,10.30
2019-02-09T13:11:18.455Z,10.30
2019-02-09T13:13:46.889Z,10.20
2019-02-09T13:16:15.675Z,10.10
2019-02-09T13:18:44.148Z,10.00
2019-02-09T13:24:54.100Z,10.00
2019-02-09T13:27:22.542Z,10.00
2019-02-09T13:29:50.973Z,9.90
2019-02-09T13:32:19.870Z,9.90
2019-02-09T13:34:48.670Z,9.90
2019-02-09T13:37:17.163Z,9.80
2019-02-09T13:43:14.551Z,9.70
2019-02-09T13:45:46.393Z,9.70
2019-02-09T13:51:56.492Z,9.60
2019-02-09T13:54:24.914Z,9.60
2019-02-09T13:56:53.374Z,9.60
2019-02-09T13:59:22.454Z,9.60
2019-02-09T14:05:32.110Z,9.50
2019-02-09T14:08:00.809Z,9.60
2019-02-09T14:13:58.423Z,9.60
2019-02-09T14:19:55.439Z,9.70
2019-02-09T14:25:53.022Z,9.80
2019-02-09T14:31:49.863Z,9.90
2019-02-09T14:37:48.203Z,9.80
2019-02-09T14:40:30.443Z,9.80
2019-02-09T14:46:40.290Z,9.80
2019-02-09T14:49:08.718Z,9.70
2019-02-09T14:51:37.152Z,9.70
2019-02-09T14:54:05.955Z,9.60
2019-02-09T15:00:22.299Z,9.60
2019-02-09T15:02:53.856Z,9.50
2019-02-09T15:08:49.835Z,9.40
2019-02-09T15:14:47.714Z,9.40
2019-02-09T15:20:47.700Z,9.30
2019-02-09T15:26:44.936Z,9.20
2019-02-09T15:29:13.367Z,9.20
2019-02-09T15:31:42.001Z,9.20
2019-02-09T15:34:10.641Z,9.20
2019-02-09T15:36:39.143Z,9.20
2019-02-09T15:39:08.833Z,9.20
2019-02-09T15:41:37.491Z,9.20
2019-02-09T15:44:05.989Z,9.20
2019-02-09T15:46:34.812Z,9.20
2019-02-09T15:49:03.311Z,9.10
2019-02-09T15:51:31.738Z,9.10
2019-02-09T15:54:00.191Z,9.10
2019-02-09T15:56:28.625Z,9.10
2019-02-09T15:58:57.352Z,9.10
2019-02-09T16:01:25.972Z,9.10
2019-02-09T16:03:54.721Z,9.10
2019-02-09T16:06:23.165Z,9.00
2019-02-09T16:08:51.896Z,8.90
2019-02-09T16:11:20.334Z,8.90
2019-02-09T16:13:49.854Z,8.90
2019-02-09T16:16:18.785Z,8.80
2019-02-09T16:18:49.307Z,8.80
2019-02-09T16:21:17.904Z,8.80
2019-02-09T16:23:46.366Z,8.70
2019-02-09T16:26:15.080Z,8.70
2019-02-09T16:28:43.527Z,8.70
2019-02-09T16:34:40.758Z,8.70
2019-02-09T16:40:16.925Z,8.70
2019-02-09T16:42:45.738Z,8.60
2019-02-09T16:48:55.223Z,8.50
2019-02-09T16:51:23.666Z,8.40
2019-02-09T16:57:21.219Z,8.40
2019-02-09T16:59:49.913Z,8.30
2019-02-09T17:02:18.492Z,8.30
2019-02-09T17:08:28.135Z,8.20
2019-02-09T17:14:38.373Z,8.10
2019-02-09T17:17:06.803Z,8.10
2019-02-09T17:19:36.863Z,8.10
2019-02-09T17:22:05.462Z,8.10
2019-02-09T17:24:34.146Z,8.10
2019-02-09T17:27:02.572Z,8.00
2019-02-09T17:29:31.042Z,8.00
2019-02-09T17:35:17.422Z,8.00
2019-02-09T17:41:27.207Z,7.90
2019-02-09T17:47:36.519Z,7.90
2019-02-09T17:53:33.711Z,7.80
2019-02-09T17:56:02.210Z,7.80
2019-02-09T17:58:30.814Z,7.90
2019-02-09T18:01:01.315Z,7.80
2019-02-09T18:03:30.106Z,7.90
2019-02-09T18:05:58.543Z,7.90
2019-02-09T18:08:27.487Z,7.90
2019-02-09T18:10:55.924Z,7.80
2019-02-09T18:13:24.763Z,7.80
2019-02-09T18:15:53.314Z,7.80
2019-02-09T18:18:21.743Z,7.80
2019-02-09T18:24:18.739Z,7.80
2019-02-09T18:26:47.614Z,7.70
2019-02-09T18:29:16.048Z,7.70
2019-02-09T18:31:44.484Z,7.70
2019-02-09T18:34:13.291Z,7.70
2019-02-09T18:36:41.722Z,7.70
2019-02-09T18:42:39.026Z,7.70
2019-02-09T18:45:10.670Z,7.60
2019-02-09T18:47:39.416Z,7.60
2019-02-09T18:50:10.920Z,7.60
2019-02-09T18:52:39.601Z,7.70
2019-02-09T18:55:11.107Z,7.70
2019-02-09T19:01:08.642Z,7.70
2019-02-09T19:03:37.194Z,7.70
2019-02-09T19:06:05.792Z,7.70
2019-02-09T19:11:38.769Z,7.70
2019-02-09T19:14:07.299Z,7.70
2019-02-09T19:16:35.727Z,7.70
2019-02-09T19:19:05.270Z,7.70
2019-02-09T19:21:34.105Z,7.70
2019-02-09T19:24:02.539Z,7.70
2019-02-09T19:26:30.967Z,7.70
2019-02-09T19:28:59.816Z,7.80
2019-02-09T19:31:28.242Z,7.70
2019-02-09T19:33:56.678Z,7.70
2019-02-09T19:36:25.138Z,7.80
2019-02-09T19:42:35.153Z,7.70
2019-02-09T19:45:07.978Z,7.70
2019-02-09T19:47:36.429Z,7.80
2019-02-09T19:50:08.007Z,7.80
2019-02-09T19:52:36.434Z,7.80
2019-02-09T19:55:08.009Z,7.80
2019-02-09T19:57:36.510Z,7.80
2019-02-09T20:00:13.910Z,7.80
2019-02-09T20:02:42.688Z,7.80
2019-02-09T20:05:11.583Z,7.80
2019-02-09T20:07:40.043Z,7.80
2019-02-09T20:13:26.265Z,7.70
2019-02-09T20:19:35.822Z,7.70
2019-02-09T20:25:45.822Z,7.80
2019-02-09T20:28:14.268Z,7.70
